sensor_id;sensor_type;location;lat;lon;timestamp;P1;durP1;ratioP1;P2;durP2;ratioP2
24335;SDS011;33098;52.400;16.880;2023-02-12T00:03:46;15.90;;;7.90;;
24335;SDS011;33098;52.400;16.880;2023-02-12T00:06:12;17.50;;;8.00;;
24335;SDS011;33098;52.400;16.880;2023-02-12T00:08:39;16.40;;;7.50;;
24335;SDS011;33098;52.400;16.880;2023-02-12T00:11:13;19.00;;;8.30;;
24335;SDS011;33098;52.400;16.880;2023-02-12T00:13:42;22.50;;;8.60;;
24335;SDS011;33098;52.400;16.880;2023-02-12T00:16:10;16.90;;;8.10;;
24335;SDS011;33098;52.400;16.880;2023-02-12T00:18:42;15.60;;;7.30;;
24335;SDS011;33098;52.400;16.880;2023-02-12T00:21:10;15.70;;;7.30;;
24335;SDS011;33098;52.400;16.880;2023-02-12T00:23:39;19.10;;;7.70;;
24335;SDS011;33098;52.400;16.880;2023-02-12T00:26:07;21.40;;;7.70;;
24335;SDS011;33098;52.400;16.880;2023-02-12T00:28:40;16.00;;;6.40;;
24335;SDS011;33098;52.400;16.880;2023-02-12T00:31:14;20.00;;;7.20;;
24335;SDS011;33098;52.400;16.880;2023-02-12T00:33:43;20.20;;;7.20;;
24335;SDS011;33098;52.400;16.880;2023-02-12T00:36:14;22.50;;;6.90;;
24335;SDS011;33098;52.400;16.880;2023-02-12T00:38:44;16.40;;;6.60;;
24335;SDS011;33098;52.400;16.880;2023-02-12T00:41:11;18.30;;;6.40;;
24335;SDS011;33098;52.400;16.880;2023-02-12T00:43:38;19.20;;;7.10;;
24335;SDS011;33098;52.400;16.880;2023-02-12T00:46:06;21.50;;;7.20;;
24335;SDS011;33098;52.400;16.880;2023-02-12T00:48:35;17.50;;;7.30;;
24335;SDS011;33098;52.400;16.880;2023-02-12T00:51:02;16.20;;;6.70;;
24335;SDS011;33098;52.400;16.880;2023-02-12T00:53:30;18.10;;;7.20;;
24335;SDS011;33098;52.400;16.880;2023-02-12T00:56:00;17.70;;;6.90;;
24335;SDS011;33098;52.400;16.880;2023-02-12T00:58:27;22.80;;;7.00;;
24335;SDS011;33098;52.400;16.880;2023-02-12T01:00:54;16.30;;;6.60;;
24335;SDS011;33098;52.400;16.880;2023-02-12T01:03:22;18.40;;;6.90;;
24335;SDS011;33098;52.400;16.880;2023-02-12T01:05:57;17.50;;;6.50;;
24335;SDS011;33098;52.400;16.880;2023-02-12T01:08:24;16.00;;;6.30;;
24335;SDS011;33098;52.400;16.880;2023-02-12T01:10:58;15.60;;;6.20;;
24335;SDS011;33098;52.400;16.880;2023-02-12T01:13:28;17.90;;;6.50;;
24335;SDS011;33098;52.400;16.880;2023-02-12T01:16:02;14.80;;;6.20;;
24335;SDS011;33098;52.400;16.880;2023-02-12T01:18:36;17.10;;;7.00;;
24335;SDS011;33098;52.400;16.880;2023-02-12T01:21:13;18.60;;;7.30;;
24335;SDS011;33098;52.400;16.880;2023-02-12T01:23:41;18.00;;;6.80;;
24335;SDS011;33098;52.400;16.880;2023-02-12T01:26:09;19.30;;;6.70;;
24335;SDS011;33098;52.400;16.880;2023-02-12T01:28:38;16.00;;;6.30;;
24335;SDS011;33098;52.400;16.880;2023-02-12T01:31:12;17.70;;;6.30;;
24335;SDS011;33098;52.400;16.880;2023-02-12T01:33:41;19.50;;;5.40;;
24335;SDS011;33098;52.400;16.880;2023-02-12T01:36:09;16.70;;;5.60;;
24335;SDS011;33098;52.400;16.880;2023-02-12T01:38:36;10.40;;;4.90;;
24335;SDS011;33098;52.400;16.880;2023-02-12T01:41:18;13.00;;;4.80;;
24335;SDS011;33098;52.400;16.880;2023-02-12T01:46:37;12.90;;;4.50;;
24335;SDS011;33098;52.400;16.880;2023-02-12T01:49:06;16.20;;;4.90;;
24335;SDS011;33098;52.400;16.880;2023-02-12T01:51:39;15.20;;;4.90;;
24335;SDS011;33098;52.400;16.880;2023-02-12T01:54:07;15.80;;;5.00;;
24335;SDS011;33098;52.400;16.880;2023-02-12T01:56:40;17.90;;;5.90;;
24335;SDS011;33098;52.400;16.880;2023-02-12T01:59:13;18.20;;;5.80;;
24335;SDS011;33098;52.400;16.880;2023-02-12T02:01:44;17.20;;;5.90;;
24335;SDS011;33098;52.400;16.880;2023-02-12T02:04:15;15.60;;;6.00;;
24335;SDS011;33098;52.400;16.880;2023-02-12T02:06:49;22.00;;;5.40;;
24335;SDS011;33098;52.400;16.880;2023-02-12T02:09:22;15.30;;;5.40;;
24335;SDS011;33098;52.400;16.880;2023-02-12T02:11:49;15.90;;;4.90;;
24335;SDS011;33098;52.400;16.880;2023-02-12T02:14:35;13.70;;;5.20;;
24335;SDS011;33098;52.400;16.880;2023-02-12T02:17:15;14.60;;;5.20;;
24335;SDS011;33098;52.400;16.880;2023-02-12T02:26:16;15.50;;;4.70;;
24335;SDS011;33098;52.400;16.880;2023-02-12T02:31:57;15.40;;;5.10;;
24335;SDS011;33098;52.400;16.880;2023-02-12T02:37:44;13.20;;;5.10;;
24335;SDS011;33098;52.400;16.880;2023-02-12T02:40:17;13.20;;;4.50;;
24335;SDS011;33098;52.400;16.880;2023-02-12T02:42:51;15.20;;;5.00;;
24335;SDS011;33098;52.400;16.880;2023-02-12T02:47:55;16.00;;;4.60;;
24335;SDS011;33098;52.400;16.880;2023-02-12T02:50:28;16.10;;;5.10;;
24335;SDS011;33098;52.400;16.880;2023-02-12T02:53:05;12.10;;;4.30;;
24335;SDS011;33098;52.400;16.880;2023-02-12T02:55:38;14.50;;;4.70;;
24335;SDS011;33098;52.400;16.880;2023-02-12T02:58:13;14.20;;;4.40;;
24335;SDS011;33098;52.400;16.880;2023-02-12T03:00:48;11.60;;;4.50;;
24335;SDS011;33098;52.400;16.880;2023-02-12T03:06:01;11.70;;;4.30;;
24335;SDS011;33098;52.400;16.880;2023-02-12T03:08:35;12.10;;;3.90;;
24335;SDS011;33098;52.400;16.880;2023-02-12T03:11:08;12.50;;;4.20;;
24335;SDS011;33098;52.400;16.880;2023-02-12T03:13:51;12.40;;;3.80;;
24335;SDS011;33098;52.400;16.880;2023-02-12T03:16:25;16.50;;;3.50;;
24335;SDS011;33098;52.400;16.880;2023-02-12T03:21:39;9.70;;;3.40;;
24335;SDS011;33098;52.400;16.880;2023-02-12T03:24:18;12.00;;;3.30;;
24335;SDS011;33098;52.400;16.880;2023-02-12T03:27:06;11.90;;;3.40;;
24335;SDS011;33098;52.400;16.880;2023-02-12T03:29:38;9.70;;;3.00;;
24335;SDS011;33098;52.400;16.880;2023-02-12T03:35:03;11.00;;;3.20;;
24335;SDS011;33098;52.400;16.880;2023-02-12T03:40:27;8.90;;;3.20;;
24335;SDS011;33098;52.400;16.880;2023-02-12T03:45:44;16.40;;;4.70;;
24335;SDS011;33098;52.400;16.880;2023-02-12T03:53:50;9.80;;;3.60;;
24335;SDS011;33098;52.400;16.880;2023-02-12T03:56:29;13.50;;;3.90;;
24335;SDS011;33098;52.400;16.880;2023-02-12T03:59:00;10.70;;;3.90;;
24335;SDS011;33098;52.400;16.880;2023-02-12T04:01:28;10.80;;;3.90;;
24335;SDS011;33098;52.400;16.880;2023-02-12T04:03:58;13.70;;;3.90;;
24335;SDS011;33098;52.400;16.880;2023-02-12T04:06:30;13.30;;;3.80;;
24335;SDS011;33098;52.400;16.880;2023-02-12T04:08:58;12.40;;;3.80;;
24335;SDS011;33098;52.400;16.880;2023-02-12T04:20:15;13.50;;;3.50;;
24335;SDS011;33098;52.400;16.880;2023-02-12T04:22:59;8.50;;;3.00;;
24335;SDS011;33098;52.400;16.880;2023-02-12T04:31:28;10.00;;;3.40;;
24335;SDS011;33098;52.400;16.880;2023-02-12T04:34:08;14.20;;;3.40;;
24335;SDS011;33098;52.400;16.880;2023-02-12T04:36:44;13.60;;;3.70;;
24335;SDS011;33098;52.400;16.880;2023-02-12T04:39:19;12.20;;;3.70;;
24335;SDS011;33098;52.400;16.880;2023-02-12T04:41:51;14.60;;;3.60;;
24335;SDS011;33098;52.400;16.880;2023-02-12T04:44:22;12.80;;;3.30;;
24335;SDS011;33098;52.400;16.880;2023-02-12T04:46:51;9.00;;;3.30;;
24335;SDS011;33098;52.400;16.880;2023-02-12T04:49:19;14.40;;;3.10;;
24335;SDS011;33098;52.400;16.880;2023-02-12T04:51:48;11.30;;;3.50;;
24335;SDS011;33098;52.400;16.880;2023-02-12T04:54:16;10.10;;;2.80;;
24335;SDS011;33098;52.400;16.880;2023-02-12T04:56:44;12.90;;;3.40;;
24335;SDS011;33098;52.400;16.880;2023-02-12T04:59:11;11.80;;;3.20;;
24335;SDS011;33098;52.400;16.880;2023-02-12T05:01:39;11.20;;;3.30;;
24335;SDS011;33098;52.400;16.880;2023-02-12T05:04:07;10.00;;;2.80;;
24335;SDS011;33098;52.400;16.880;2023-02-12T05:06:37;9.80;;;3.10;;
24335;SDS011;33098;52.400;16.880;2023-02-12T05:09:05;11.10;;;3.00;;
24335;SDS011;33098;52.400;16.880;2023-02-12T05:11:33;11.70;;;2.70;;
24335;SDS011;33098;52.400;16.880;2023-02-12T05:14:00;9.40;;;3.10;;
24335;SDS011;33098;52.400;16.880;2023-02-12T05:16:27;9.90;;;3.20;;
24335;SDS011;33098;52.400;16.880;2023-02-12T05:18:53;10.80;;;3.40;;
24335;SDS011;33098;52.400;16.880;2023-02-12T05:21:20;13.30;;;3.40;;
24335;SDS011;33098;52.400;16.880;2023-02-12T05:23:47;9.50;;;3.20;;
24335;SDS011;33098;52.400;16.880;2023-02-12T05:26:16;9.80;;;3.30;;
24335;SDS011;33098;52.400;16.880;2023-02-12T05:28:46;9.60;;;3.20;;
24335;SDS011;33098;52.400;16.880;2023-02-12T05:31:14;11.60;;;3.50;;
24335;SDS011;33098;52.400;16.880;2023-02-12T05:33:43;13.80;;;3.00;;
24335;SDS011;33098;52.400;16.880;2023-02-12T05:36:14;12.90;;;3.30;;
24335;SDS011;33098;52.400;16.880;2023-02-12T05:38:43;12.20;;;3.60;;
24335;SDS011;33098;52.400;16.880;2023-02-12T05:41:13;11.00;;;3.10;;
24335;SDS011;33098;52.400;16.880;2023-02-12T05:43:42;9.40;;;3.00;;
24335;SDS011;33098;52.400;16.880;2023-02-12T05:46:12;10.10;;;3.20;;
24335;SDS011;33098;52.400;16.880;2023-02-12T05:48:39;9.20;;;2.90;;
24335;SDS011;33098;52.400;16.880;2023-02-12T05:51:10;10.00;;;3.10;;
24335;SDS011;33098;52.400;16.880;2023-02-12T05:54:01;8.50;;;3.10;;
24335;SDS011;33098;52.400;16.880;2023-02-12T05:56:41;11.70;;;3.20;;
24335;SDS011;33098;52.400;16.880;2023-02-12T05:59:14;9.50;;;3.40;;
24335;SDS011;33098;52.400;16.880;2023-02-12T06:01:45;10.90;;;4.00;;
24335;SDS011;33098;52.400;16.880;2023-02-12T06:04:17;12.10;;;4.00;;
24335;SDS011;33098;52.400;16.880;2023-02-12T06:06:45;14.80;;;5.30;;
24335;SDS011;33098;52.400;16.880;2023-02-12T06:09:12;9.50;;;4.20;;
24335;SDS011;33098;52.400;16.880;2023-02-12T06:11:40;12.70;;;4.00;;
24335;SDS011;33098;52.400;16.880;2023-02-12T06:14:10;12.10;;;4.00;;
24335;SDS011;33098;52.400;16.880;2023-02-12T06:16:39;12.30;;;4.70;;
24335;SDS011;33098;52.400;16.880;2023-02-12T06:19:06;11.10;;;5.50;;
24335;SDS011;33098;52.400;16.880;2023-02-12T06:21:33;14.80;;;5.00;;
24335;SDS011;33098;52.400;16.880;2023-02-12T06:24:03;11.80;;;5.50;;
24335;SDS011;33098;52.400;16.880;2023-02-12T06:26:33;11.90;;;4.80;;
24335;SDS011;33098;52.400;16.880;2023-02-12T06:29:00;12.90;;;4.80;;
24335;SDS011;33098;52.400;16.880;2023-02-12T06:31:33;12.70;;;4.30;;
24335;SDS011;33098;52.400;16.880;2023-02-12T06:34:02;8.80;;;3.60;;
24335;SDS011;33098;52.400;16.880;2023-02-12T06:36:32;10.10;;;3.90;;
24335;SDS011;33098;52.400;16.880;2023-02-12T06:39:00;18.30;;;7.90;;
24335;SDS011;33098;52.400;16.880;2023-02-12T06:41:27;17.70;;;8.10;;
24335;SDS011;33098;52.400;16.880;2023-02-12T06:43:54;18.50;;;8.30;;
24335;SDS011;33098;52.400;16.880;2023-02-12T06:46:22;19.10;;;8.80;;
24335;SDS011;33098;52.400;16.880;2023-02-12T06:48:51;21.40;;;9.00;;
24335;SDS011;33098;52.400;16.880;2023-02-12T06:51:19;22.50;;;8.80;;
24335;SDS011;33098;52.400;16.880;2023-02-12T06:53:51;20.80;;;9.40;;
24335;SDS011;33098;52.400;16.880;2023-02-12T06:56:19;20.90;;;9.60;;
24335;SDS011;33098;52.400;16.880;2023-02-12T06:58:51;20.20;;;8.80;;
24335;SDS011;33098;52.400;16.880;2023-02-12T07:01:25;26.50;;;10.00;;
24335;SDS011;33098;52.400;16.880;2023-02-12T07:03:54;23.90;;;10.00;;
24335;SDS011;33098;52.400;16.880;2023-02-12T07:06:28;26.90;;;10.60;;
24335;SDS011;33098;52.400;16.880;2023-02-12T07:09:01;23.50;;;10.90;;
24335;SDS011;33098;52.400;16.880;2023-02-12T07:11:30;27.20;;;11.20;;
24335;SDS011;33098;52.400;16.880;2023-02-12T07:13:58;25.50;;;10.30;;
24335;SDS011;33098;52.400;16.880;2023-02-12T07:16:26;31.80;;;10.40;;
24335;SDS011;33098;52.400;16.880;2023-02-12T07:18:53;26.10;;;10.40;;
24335;SDS011;33098;52.400;16.880;2023-02-12T07:21:20;24.90;;;9.50;;
24335;SDS011;33098;52.400;16.880;2023-02-12T07:23:50;23.80;;;9.50;;
24335;SDS011;33098;52.400;16.880;2023-02-12T07:26:18;25.10;;;9.80;;
24335;SDS011;33098;52.400;16.880;2023-02-12T07:28:47;25.00;;;10.10;;
24335;SDS011;33098;52.400;16.880;2023-02-12T07:31:16;26.70;;;9.70;;
24335;SDS011;33098;52.400;16.880;2023-02-12T07:33:48;25.20;;;9.70;;
24335;SDS011;33098;52.400;16.880;2023-02-12T07:36:19;26.50;;;10.40;;
24335;SDS011;33098;52.400;16.880;2023-02-12T07:38:52;26.70;;;9.90;;
24335;SDS011;33098;52.400;16.880;2023-02-12T07:41:26;27.50;;;9.60;;
24335;SDS011;33098;52.400;16.880;2023-02-12T07:43:56;21.90;;;8.20;;
24335;SDS011;33098;52.400;16.880;2023-02-12T07:46:25;18.80;;;9.10;;
24335;SDS011;33098;52.400;16.880;2023-02-12T07:49:00;20.40;;;9.10;;
24335;SDS011;33098;52.400;16.880;2023-02-12T07:51:33;19.00;;;9.00;;
24335;SDS011;33098;52.400;16.880;2023-02-12T07:54:02;16.00;;;8.90;;
24335;SDS011;33098;52.400;16.880;2023-02-12T07:56:31;20.90;;;9.00;;
24335;SDS011;33098;52.400;16.880;2023-02-12T07:59:01;19.70;;;8.30;;
24335;SDS011;33098;52.400;16.880;2023-02-12T08:01:32;23.40;;;9.00;;
24335;SDS011;33098;52.400;16.880;2023-02-12T08:04:01;15.50;;;8.80;;
24335;SDS011;33098;52.400;16.880;2023-02-12T08:06:32;20.50;;;9.50;;
24335;SDS011;33098;52.400;16.880;2023-02-12T08:09:03;17.10;;;8.60;;
24335;SDS011;33098;52.400;16.880;2023-02-12T08:11:34;19.30;;;8.50;;
24335;SDS011;33098;52.400;16.880;2023-02-12T08:14:03;16.90;;;8.10;;
24335;SDS011;33098;52.400;16.880;2023-02-12T08:16:34;21.40;;;8.60;;
24335;SDS011;33098;52.400;16.880;2023-02-12T08:19:02;15.40;;;8.00;;
24335;SDS011;33098;52.400;16.880;2023-02-12T08:21:30;16.30;;;8.40;;
24335;SDS011;33098;52.400;16.880;2023-02-12T08:23:59;19.30;;;8.80;;
24335;SDS011;33098;52.400;16.880;2023-02-12T08:26:27;20.70;;;9.30;;
24335;SDS011;33098;52.400;16.880;2023-02-12T08:28:59;19.80;;;9.10;;
24335;SDS011;33098;52.400;16.880;2023-02-12T08:31:29;16.60;;;9.00;;
24335;SDS011;33098;52.400;16.880;2023-02-12T08:34:09;21.00;;;9.40;;
24335;SDS011;33098;52.400;16.880;2023-02-12T08:36:45;18.60;;;9.70;;
24335;SDS011;33098;52.400;16.880;2023-02-12T08:39:18;20.30;;;9.70;;
24335;SDS011;33098;52.400;16.880;2023-02-12T08:41:46;22.00;;;9.30;;
24335;SDS011;33098;52.400;16.880;2023-02-12T08:44:16;15.40;;;8.20;;
24335;SDS011;33098;52.400;16.880;2023-02-12T08:46:44;18.60;;;8.50;;
24335;SDS011;33098;52.400;16.880;2023-02-12T08:49:17;17.00;;;8.50;;
24335;SDS011;33098;52.400;16.880;2023-02-12T08:51:51;19.20;;;9.50;;
24335;SDS011;33098;52.400;16.880;2023-02-12T08:54:27;20.40;;;9.20;;
24335;SDS011;33098;52.400;16.880;2023-02-12T08:56:59;20.20;;;9.30;;
24335;SDS011;33098;52.400;16.880;2023-02-12T08:59:28;22.00;;;10.00;;
24335;SDS011;33098;52.400;16.880;2023-02-12T09:01:55;20.40;;;10.00;;
24335;SDS011;33098;52.400;16.880;2023-02-12T09:04:23;20.20;;;10.40;;
24335;SDS011;33098;52.400;16.880;2023-02-12T09:07:07;24.00;;;10.10;;
24335;SDS011;33098;52.400;16.880;2023-02-12T09:09:34;23.60;;;10.90;;
24335;SDS011;33098;52.400;16.880;2023-02-12T09:12:01;23.10;;;11.40;;
24335;SDS011;33098;52.400;16.880;2023-02-12T09:14:28;23.40;;;11.40;;
24335;SDS011;33098;52.400;16.880;2023-02-12T09:16:55;23.90;;;11.30;;
24335;SDS011;33098;52.400;16.880;2023-02-12T09:19:23;24.30;;;12.00;;
24335;SDS011;33098;52.400;16.880;2023-02-12T09:21:53;28.90;;;12.10;;
24335;SDS011;33098;52.400;16.880;2023-02-12T09:24:21;24.70;;;11.60;;
24335;SDS011;33098;52.400;16.880;2023-02-12T09:29:20;24.60;;;12.80;;
24335;SDS011;33098;52.400;16.880;2023-02-12T09:31:50;25.30;;;12.90;;
24335;SDS011;33098;52.400;16.880;2023-02-12T09:34:20;31.30;;;13.90;;
24335;SDS011;33098;52.400;16.880;2023-02-12T09:36:53;28.10;;;12.90;;
24335;SDS011;33098;52.400;16.880;2023-02-12T09:39:25;28.70;;;14.90;;
24335;SDS011;33098;52.400;16.880;2023-02-12T09:47:24;25.40;;;13.80;;
24335;SDS011;33098;52.400;16.880;2023-02-12T09:52:31;29.60;;;15.30;;
24335;SDS011;33098;52.400;16.880;2023-02-12T09:55:06;32.60;;;15.20;;
24335;SDS011;33098;52.400;16.880;2023-02-12T09:57:43;27.80;;;14.70;;
24335;SDS011;33098;52.400;16.880;2023-02-12T10:00:46;32.20;;;16.30;;
24335;SDS011;33098;52.400;16.880;2023-02-12T10:03:05;38.40;;;15.60;;
24335;SDS011;33098;52.400;16.880;2023-02-12T10:05:47;31.00;;;16.00;;
24335;SDS011;33098;52.400;16.880;2023-02-12T10:08:23;31.50;;;15.10;;
24335;SDS011;33098;52.400;16.880;2023-02-12T10:14:07;28.70;;;13.60;;
24335;SDS011;33098;52.400;16.880;2023-02-12T10:17:02;32.00;;;14.80;;
24335;SDS011;33098;52.400;16.880;2023-02-12T10:22:37;26.50;;;14.40;;
24335;SDS011;33098;52.400;16.880;2023-02-12T10:25:19;34.40;;;14.70;;
24335;SDS011;33098;52.400;16.880;2023-02-12T10:28:08;27.80;;;14.50;;
24335;SDS011;33098;52.400;16.880;2023-02-12T10:33:35;30.50;;;14.80;;
24335;SDS011;33098;52.400;16.880;2023-02-12T10:36:11;25.30;;;14.20;;
24335;SDS011;33098;52.400;16.880;2023-02-12T10:39:55;24.60;;;13.60;;
24335;SDS011;33098;52.400;16.880;2023-02-12T10:44:43;29.90;;;15.00;;
24335;SDS011;33098;52.400;16.880;2023-02-12T10:47:17;25.80;;;12.40;;
24335;SDS011;33098;52.400;16.880;2023-02-12T10:49:48;25.40;;;13.50;;
24335;SDS011;33098;52.400;16.880;2023-02-12T10:52:33;26.60;;;13.50;;
24335;SDS011;33098;52.400;16.880;2023-02-12T10:58:00;22.60;;;12.50;;
24335;SDS011;33098;52.400;16.880;2023-02-12T11:00:35;24.10;;;12.90;;
24335;SDS011;33098;52.400;16.880;2023-02-12T11:05:34;21.30;;;10.90;;
24335;SDS011;33098;52.400;16.880;2023-02-12T11:08:02;21.80;;;11.60;;
24335;SDS011;33098;52.400;16.880;2023-02-12T11:10:32;18.50;;;10.60;;
24335;SDS011;33098;52.400;16.880;2023-02-12T11:13:04;22.40;;;11.20;;
24335;SDS011;33098;52.400;16.880;2023-02-12T11:15:45;18.00;;;8.40;;
24335;SDS011;33098;52.400;16.880;2023-02-12T11:18:23;15.80;;;9.10;;
24335;SDS011;33098;52.400;16.880;2023-02-12T11:20:54;12.30;;;7.50;;
24335;SDS011;33098;52.400;16.880;2023-02-12T11:23:31;12.60;;;6.40;;
24335;SDS011;33098;52.400;16.880;2023-02-12T11:26:03;12.40;;;6.40;;
24335;SDS011;33098;52.400;16.880;2023-02-12T11:31:41;13.40;;;7.20;;
24335;SDS011;33098;52.400;16.880;2023-02-12T11:34:24;16.10;;;7.40;;
24335;SDS011;33098;52.400;16.880;2023-02-12T11:36:54;11.00;;;6.50;;
24335;SDS011;33098;52.400;16.880;2023-02-12T11:39:25;10.70;;;5.80;;
24335;SDS011;33098;52.400;16.880;2023-02-12T11:42:05;12.00;;;6.10;;
24335;SDS011;33098;52.400;16.880;2023-02-12T11:44:55;13.00;;;5.70;;
24335;SDS011;33098;52.400;16.880;2023-02-12T11:47:28;11.20;;;5.70;;
24335;SDS011;33098;52.400;16.880;2023-02-12T11:52:30;11.80;;;5.30;;
24335;SDS011;33098;52.400;16.880;2023-02-12T11:55:00;12.50;;;6.90;;
24335;SDS011;33098;52.400;16.880;2023-02-12T11:57:37;11.30;;;5.10;;
24335;SDS011;33098;52.400;16.880;2023-02-12T12:05:53;12.00;;;5.70;;
24335;SDS011;33098;52.400;16.880;2023-02-12T12:08:41;14.50;;;6.60;;
24335;SDS011;33098;52.400;16.880;2023-02-12T12:11:15;10.60;;;6.40;;
24335;SDS011;33098;52.400;16.880;2023-02-12T12:14:19;21.20;;;11.50;;
24335;SDS011;33098;52.400;16.880;2023-02-12T12:19:43;14.00;;;7.20;;
24335;SDS011;33098;52.400;16.880;2023-02-12T12:27:58;11.90;;;6.50;;
24335;SDS011;33098;52.400;16.880;2023-02-12T12:31:07;16.70;;;7.10;;
24335;SDS011;33098;52.400;16.880;2023-02-12T12:33:57;15.10;;;6.90;;
24335;SDS011;33098;52.400;16.880;2023-02-12T12:45:18;13.90;;;5.90;;
24335;SDS011;33098;52.400;16.880;2023-02-12T12:48:15;15.30;;;6.20;;
24335;SDS011;33098;52.400;16.880;2023-02-12T12:58:48;15.40;;;7.00;;
24335;SDS011;33098;52.400;16.880;2023-02-12T13:13:47;17.00;;;7.80;;
24335;SDS011;33098;52.400;16.880;2023-02-12T13:18:33;16.00;;;7.00;;
24335;SDS011;33098;52.400;16.880;2023-02-12T13:21:07;14.70;;;8.20;;
24335;SDS011;33098;52.400;16.880;2023-02-12T13:23:58;18.40;;;8.70;;
24335;SDS011;33098;52.400;16.880;2023-02-12T13:26:53;18.50;;;8.00;;
24335;SDS011;33098;52.400;16.880;2023-02-12T13:29:34;13.60;;;7.60;;
24335;SDS011;33098;52.400;16.880;2023-02-12T13:32:14;15.20;;;7.40;;
24335;SDS011;33098;52.400;16.880;2023-02-12T13:34:51;17.00;;;8.20;;
24335;SDS011;33098;52.400;16.880;2023-02-12T13:37:32;16.60;;;7.10;;
24335;SDS011;33098;52.400;16.880;2023-02-12T13:40:05;16.90;;;6.80;;
24335;SDS011;33098;52.400;16.880;2023-02-12T13:42:38;13.90;;;7.00;;
24335;SDS011;33098;52.400;16.880;2023-02-12T13:48:11;15.90;;;7.70;;
24335;SDS011;33098;52.400;16.880;2023-02-12T14:02:00;14.90;;;8.00;;
24335;SDS011;33098;52.400;16.880;2023-02-12T14:04:42;17.10;;;9.10;;
24335;SDS011;33098;52.400;16.880;2023-02-12T14:07:14;20.90;;;9.80;;
24335;SDS011;33098;52.400;16.880;2023-02-12T14:15:02;22.40;;;10.90;;
24335;SDS011;33098;52.400;16.880;2023-02-12T14:27:45;21.00;;;11.30;;
24335;SDS011;33098;52.400;16.880;2023-02-12T14:30:24;24.50;;;12.10;;
24335;SDS011;33098;52.400;16.880;2023-02-12T14:35:40;23.90;;;11.90;;
24335;SDS011;33098;52.400;16.880;2023-02-12T14:40:40;24.80;;;12.20;;
24335;SDS011;33098;52.400;16.880;2023-02-12T14:43:23;30.20;;;13.20;;
24335;SDS011;33098;52.400;16.880;2023-02-12T14:48:50;25.40;;;11.40;;
24335;SDS011;33098;52.400;16.880;2023-02-12T14:53:56;22.00;;;10.90;;
24335;SDS011;33098;52.400;16.880;2023-02-12T14:56:24;22.90;;;10.90;;
24335;SDS011;33098;52.400;16.880;2023-02-12T14:59:02;22.60;;;10.10;;
24335;SDS011;33098;52.400;16.880;2023-02-12T15:01:31;15.00;;;6.80;;
24335;SDS011;33098;52.400;16.880;2023-02-12T15:04:03;19.90;;;7.30;;
24335;SDS011;33098;52.400;16.880;2023-02-12T15:06:50;17.10;;;6.70;;
24335;SDS011;33098;52.400;16.880;2023-02-12T15:09:24;17.20;;;6.60;;
24335;SDS011;33098;52.400;16.880;2023-02-12T15:12:02;15.30;;;6.60;;
24335;SDS011;33098;52.400;16.880;2023-02-12T15:14:39;14.20;;;5.70;;
24335;SDS011;33098;52.400;16.880;2023-02-12T15:19:51;11.20;;;5.20;;
24335;SDS011;33098;52.400;16.880;2023-02-12T15:22:35;11.60;;;4.70;;
24335;SDS011;33098;52.400;16.880;2023-02-12T15:28:03;9.70;;;4.40;;
24335;SDS011;33098;52.400;16.880;2023-02-12T15:30:39;12.70;;;4.70;;
24335;SDS011;33098;52.400;16.880;2023-02-12T15:33:08;11.10;;;4.90;;
24335;SDS011;33098;52.400;16.880;2023-02-12T15:35:48;9.40;;;3.60;;
24335;SDS011;33098;52.400;16.880;2023-02-12T15:38:20;11.20;;;4.20;;
24335;SDS011;33098;52.400;16.880;2023-02-12T15:40:57;9.00;;;3.80;;
24335;SDS011;33098;52.400;16.880;2023-02-12T15:43:30;10.70;;;4.00;;
24335;SDS011;33098;52.400;16.880;2023-02-12T15:46:01;10.40;;;3.90;;
24335;SDS011;33098;52.400;16.880;2023-02-12T15:48:33;11.40;;;3.80;;
24335;SDS011;33098;52.400;16.880;2023-02-12T15:53:48;8.50;;;3.90;;
24335;SDS011;33098;52.400;16.880;2023-02-12T15:56:16;7.30;;;4.00;;
24335;SDS011;33098;52.400;16.880;2023-02-12T15:58:50;12.80;;;4.50;;
24335;SDS011;33098;52.400;16.880;2023-02-12T16:01:22;13.40;;;5.30;;
24335;SDS011;33098;52.400;16.880;2023-02-12T16:06:28;13.80;;;5.30;;
24335;SDS011;33098;52.400;16.880;2023-02-12T16:09:03;13.50;;;6.20;;
24335;SDS011;33098;52.400;16.880;2023-02-12T16:11:37;15.60;;;5.90;;
24335;SDS011;33098;52.400;16.880;2023-02-12T16:14:17;11.00;;;5.70;;
24335;SDS011;33098;52.400;16.880;2023-02-12T16:16:52;15.00;;;6.70;;
24335;SDS011;33098;52.400;16.880;2023-02-12T16:19:29;14.50;;;6.90;;
24335;SDS011;33098;52.400;16.880;2023-02-12T16:24:48;14.10;;;6.10;;
24335;SDS011;33098;52.400;16.880;2023-02-12T16:27:21;12.70;;;5.90;;
24335;SDS011;33098;52.400;16.880;2023-02-12T16:30:02;16.60;;;6.90;;
24335;SDS011;33098;52.400;16.880;2023-02-12T16:32:49;17.90;;;7.60;;
24335;SDS011;33098;52.400;16.880;2023-02-12T16:35:23;17.20;;;7.40;;
24335;SDS011;33098;52.400;16.880;2023-02-12T16:41:14;16.80;;;8.20;;
24335;SDS011;33098;52.400;16.880;2023-02-12T16:46:26;19.60;;;9.20;;
24335;SDS011;33098;52.400;16.880;2023-02-12T16:49:00;24.30;;;11.00;;
24335;SDS011;33098;52.400;16.880;2023-02-12T16:51:30;26.90;;;12.70;;
24335;SDS011;33098;52.400;16.880;2023-02-12T16:54:01;28.00;;;13.50;;
24335;SDS011;33098;52.400;16.880;2023-02-12T16:56:30;26.70;;;13.70;;
24335;SDS011;33098;52.400;16.880;2023-02-12T16:59:05;26.50;;;14.70;;
24335;SDS011;33098;52.400;16.880;2023-02-12T17:01:34;25.70;;;14.00;;
24335;SDS011;33098;52.400;16.880;2023-02-12T17:04:04;26.50;;;13.10;;
24335;SDS011;33098;52.400;16.880;2023-02-12T17:06:39;28.10;;;14.10;;
24335;SDS011;33098;52.400;16.880;2023-02-12T17:09:06;26.50;;;12.70;;
24335;SDS011;33098;52.400;16.880;2023-02-12T17:11:33;27.20;;;13.40;;
24335;SDS011;33098;52.400;16.880;2023-02-12T17:14:00;28.50;;;13.30;;
24335;SDS011;33098;52.400;16.880;2023-02-12T17:16:27;26.70;;;13.20;;
24335;SDS011;33098;52.400;16.880;2023-02-12T17:18:53;23.90;;;11.30;;
24335;SDS011;33098;52.400;16.880;2023-02-12T17:24:03;26.40;;;12.00;;
24335;SDS011;33098;52.400;16.880;2023-02-12T17:26:54;26.20;;;12.50;;
24335;SDS011;33098;52.400;16.880;2023-02-12T17:29:24;26.80;;;11.70;;
24335;SDS011;33098;52.400;16.880;2023-02-12T17:31:53;27.40;;;13.20;;
24335;SDS011;33098;52.400;16.880;2023-02-12T17:34:22;28.80;;;12.80;;
24335;SDS011;33098;52.400;16.880;2023-02-12T17:36:49;32.00;;;13.80;;
24335;SDS011;33098;52.400;16.880;2023-02-12T17:39:16;31.00;;;13.20;;
24335;SDS011;33098;52.400;16.880;2023-02-12T17:41:44;33.00;;;16.20;;
24335;SDS011;33098;52.400;16.880;2023-02-12T17:44:11;34.80;;;16.90;;
24335;SDS011;33098;52.400;16.880;2023-02-12T17:46:40;34.10;;;15.00;;
24335;SDS011;33098;52.400;16.880;2023-02-12T17:49:08;37.70;;;16.80;;
24335;SDS011;33098;52.400;16.880;2023-02-12T17:51:38;36.20;;;17.10;;
24335;SDS011;33098;52.400;16.880;2023-02-12T17:54:05;36.00;;;16.00;;
24335;SDS011;33098;52.400;16.880;2023-02-12T17:56:34;34.10;;;16.70;;
24335;SDS011;33098;52.400;16.880;2023-02-12T17:59:01;33.70;;;16.20;;
24335;SDS011;33098;52.400;16.880;2023-02-12T18:01:28;35.80;;;15.40;;
24335;SDS011;33098;52.400;16.880;2023-02-12T18:03:56;27.00;;;13.00;;
24335;SDS011;33098;52.400;16.880;2023-02-12T18:06:27;34.00;;;14.90;;